Time;durP1;ratioP1;P1;durP2;ratioP2;P2;SDS_P1;SDS_P2;PMS_P1;PMS_P2;Temp;Humidity;BMP_temperature;BMP_pressure;BME280_temperature;BME280_humidity;BME280_pressure;Samples;Min_cycle;Max_cycle;Signal;HPM_P1;HPM_P2
2021/09/10 00:01:10;;;;;;;13.60;9.00;;;21.20;71.80;;;;;;5035075;28;20186;-75
2021/09/10 00:03:35;;;;;;;18.30;8.20;;;21.10;71.80;;;;;;5026363;28;20453;-74
2021/09/10 00:06:01;;;;;;;14.20;10.03;;;21.10;72.30;;;;;;5024142;28;20234;-75
2021/09/10 00:08:27;;;;;;;13.60;9.10;;;21.00;72.40;;;;;;5030293;28;20241;-74
2021/09/10 00:10:53;;;;;;;13.93;8.30;;;21.00;72.60;;;;;;5030418;28;20614;-75
2021/09/10 00:13:19;;;;;;;10.97;7.90;;;20.90;72.70;;;;;;5028579;28;20207;-76
2021/09/10 00:15:45;;;;;;;14.47;9.97;;;20.90;72.90;;;;;;5030239;28;20686;-74
2021/09/10 00:18:11;;;;;;;14.70;9.30;;;20.90;73.30;;;;;;5029539;28;20421;-75
2021/09/10 00:20:37;;;;;;;12.50;9.17;;;20.80;73.60;;;;;;5030558;28;20185;-77
2021/09/10 00:23:03;;;;;;;12.97;8.70;;;20.70;73.60;;;;;;5030412;28;20481;-78
2021/09/10 00:25:28;;;;;;;14.87;9.40;;;20.70;73.70;;;;;;5023016;28;20438;-75
2021/09/10 00:27:54;;;;;;;10.03;8.43;;;20.70;74.00;;;;;;5026544;28;20535;-76
2021/09/10 00:30:20;;;;;;;13.80;8.53;;;20.70;73.90;;;;;;5028225;28;20193;-76
2021/09/10 00:32:46;;;;;;;13.93;8.77;;;20.70;74.00;;;;;;5028488;28;20218;-76
2021/09/10 00:35:11;;;;;;;12.53;9.10;;;20.70;74.20;;;;;;5033639;28;20230;-76
2021/09/10 00:37:37;;;;;;;10.53;8.20;;;20.70;74.20;;;;;;5032804;28;20202;-75
2021/09/10 00:40:05;;;;;;;11.13;7.90;;;20.60;74.50;;;;;;5032186;28;20190;-75
2021/09/10 00:42:31;;;;;;;12.50;8.07;;;20.60;74.50;;;;;;5025869;28;20477;-75
2021/09/10 00:44:57;;;;;;;12.50;8.50;;;20.60;74.50;;;;;;5033410;28;20844;-75
2021/09/10 00:47:23;;;;;;;13.97;8.90;;;20.60;74.80;;;;;;5034327;28;20186;-77
2021/09/10 00:49:49;;;;;;;16.03;9.73;;;20.60;74.60;;;;;;5034252;28;20657;-76
2021/09/10 00:52:15;;;;;;;12.70;8.20;;;20.60;74.80;;;;;;5032919;28;20516;-77
2021/09/10 00:54:41;;;;;;;13.47;9.30;;;20.60;74.90;;;;;;5034053;28;20487;-75
2021/09/10 00:57:08;;;;;;;11.50;7.70;;;20.50;75.20;;;;;;5033984;28;20555;-76
2021/09/10 00:59:34;;;;;;;15.40;8.63;;;20.50;75.40;;;;;;5034162;28;20422;-76
2021/09/10 01:02:01;;;;;;;12.67;9.10;;;20.50;75.40;;;;;;5034380;28;20861;-77
2021/09/10 01:04:27;;;;;;;12.10;8.40;;;20.50;75.40;;;;;;5033552;28;20212;-76
2021/09/10 01:06:54;;;;;;;12.23;8.77;;;20.50;75.50;;;;;;5033790;28;20837;-76
2021/09/10 01:09:21;;;;;;;11.50;8.60;;;20.50;75.20;;;;;;5032501;28;20434;-76
2021/09/10 01:11:50;;;;;;;11.90;8.93;;;20.50;75.10;;;;;;5034239;28;20868;-76
2021/09/10 01:14:17;;;;;;;13.30;8.90;;;20.40;75.50;;;;;;5035055;28;20446;-78
2021/09/10 01:16:47;;;;;;;17.93;8.80;;;20.40;75.50;;;;;;5041037;28;20757;-78
2021/09/10 01:19:27;;;;;;;13.03;8.87;;;20.50;75.50;;;;;;5047301;28;20424;-77
2021/09/10 01:21:59;;;;;;;13.93;9.17;;;20.50;75.50;;;;;;5053632;28;20887;-77
2021/09/10 01:24:40;;;;;;;15.67;9.47;;;20.50;74.90;;;;;;5046939;28;20806;-76
2021/09/10 01:27:07;;;;;;;12.80;8.97;;;20.50;75.10;;;;;;5034866;28;20426;-76
2021/09/10 01:29:34;;;;;;;13.63;8.60;;;20.40;75.70;;;;;;5034361;28;20519;-75
2021/09/10 01:32:01;;;;;;;14.63;8.40;;;20.40;75.90;;;;;;5033840;28;20464;-76
2021/09/10 01:34:26;;;;;;;14.10;8.70;;;20.40;76.10;;;;;;5030598;28;20441;-75
2021/09/10 01:36:53;;;;;;;12.57;9.10;;;20.30;76.20;;;;;;5039866;28;20520;-75
2021/09/10 01:39:19;;;;;;;13.30;9.33;;;20.30;76.50;;;;;;5033969;28;20182;-75
2021/09/10 01:41:44;;;;;;;15.80;9.50;;;20.30;76.80;;;;;;5033757;28;20421;-76
2021/09/10 01:44:10;;;;;;;17.63;9.67;;;20.20;77.30;;;;;;5032207;28;20680;-78
2021/09/10 01:46:36;;;;;;;13.63;9.07;;;20.20;77.60;;;;;;5033615;28;20224;-75
2021/09/10 01:49:02;;;;;;;11.40;8.17;;;20.10;78.00;;;;;;5032468;28;20192;-76
2021/09/10 01:51:32;;;;;;;14.60;9.23;;;20.10;78.00;;;;;;5034142;28;20187;-76
2021/09/10 01:53:58;;;;;;;13.90;9.23;;;20.10;78.10;;;;;;5032239;28;20525;-74
2021/09/10 01:56:24;;;;;;;13.27;8.80;;;20.00;78.40;;;;;;5033521;28;20940;-76
2021/09/10 01:58:50;;;;;;;13.53;9.33;;;20.10;78.40;;;;;;5033263;28;20493;-76
2021/09/10 02:01:24;;;;;;;15.57;9.30;;;20.10;78.40;;;;;;5032956;28;21027;-77
2021/09/10 02:03:50;;;;;;;15.47;9.10;;;20.10;78.60;;;;;;5032189;28;20213;-75
2021/09/10 02:06:15;;;;;;;12.40;8.83;;;20.10;78.60;;;;;;5030896;28;20455;-77
2021/09/10 02:08:41;;;;;;;15.10;9.47;;;20.10;78.30;;;;;;5032303;28;20418;-75
2021/09/10 02:11:07;;;;;;;12.83;9.17;;;20.10;78.10;;;;;;5032155;28;20197;-76
2021/09/10 02:13:33;;;;;;;12.33;8.07;;;20.10;78.10;;;;;;5032291;28;20217;-74
2021/09/10 02:15:59;;;;;;;17.17;9.23;;;20.10;77.60;;;;;;5036640;28;20441;-76
2021/09/10 02:18:24;;;;;;;15.33;9.00;;;20.10;77.10;;;;;;5031697;28;20201;-76
2021/09/10 02:20:50;;;;;;;14.40;9.63;;;20.10;77.10;;;;;;5025310;28;20181;-76
2021/09/10 02:23:16;;;;;;;12.27;9.27;;;20.10;77.40;;;;;;5032246;28;20251;-77
2021/09/10 02:25:41;;;;;;;18.43;9.93;;;20.10;77.70;;;;;;5031680;28;20214;-75
2021/09/10 02:28:07;;;;;;;12.83;8.43;;;20.10;77.70;;;;;;5031761;28;20189;-75
2021/09/10 02:30:34;;;;;;;13.33;8.83;;;20.10;77.60;;;;;;5033235;28;20216;-75
2021/09/10 02:33:00;;;;;;;14.90;9.43;;;20.10;77.70;;;;;;5035284;28;20739;-76
2021/09/10 02:35:26;;;;;;;12.80;9.30;;;20.10;77.80;;;;;;5030899;28;20574;-75
2021/09/10 02:37:53;;;;;;;13.83;9.57;;;20.10;78.00;;;;;;5029890;28;20460;-75
2021/09/10 02:40:20;;;;;;;12.37;9.43;;;20.10;78.10;;;;;;5031050;28;20511;-75
2021/09/10 02:42:45;;;;;;;15.00;9.00;;;20.00;78.30;;;;;;5034374;28;20424;-74
2021/09/10 02:45:11;;;;;;;12.93;9.07;;;20.10;78.30;;;;;;5029974;28;20574;-75
2021/09/10 02:47:37;;;;;;;11.67;9.10;;;20.00;78.30;;;;;;5031478;28;20700;-75
2021/09/10 02:50:03;;;;;;;12.80;9.73;;;20.00;78.60;;;;;;5031727;28;20182;-76
2021/09/10 02:52:29;;;;;;;13.23;8.90;;;20.00;79.00;;;;;;5023978;28;21018;-76
2021/09/10 02:54:55;;;;;;;11.70;9.00;;;20.10;79.00;;;;;;5029849;28;20600;-76
2021/09/10 02:57:20;;;;;;;11.20;8.50;;;20.10;78.70;;;;;;5030831;28;20289;-76
2021/09/10 02:59:46;;;;;;;16.30;9.80;;;20.10;78.60;;;;;;5031629;28;20206;-75
2021/09/10 03:02:12;;;;;;;13.27;8.80;;;20.10;78.70;;;;;;5031445;28;20268;-76
2021/09/10 03:04:37;;;;;;;17.07;10.10;;;20.10;78.70;;;;;;5029098;28;20210;-76
2021/09/10 03:07:03;;;;;;;15.13;9.50;;;20.10;78.90;;;;;;5031830;28;20190;-76
2021/09/10 03:09:29;;;;;;;13.27;9.63;;;20.20;78.60;;;;;;5031522;28;20182;-75
2021/09/10 03:11:55;;;;;;;13.77;9.47;;;20.20;78.40;;;;;;5031259;28;20837;-75
2021/09/10 03:14:21;;;;;;;12.03;8.57;;;20.20;78.40;;;;;;5031027;28;20198;-76
2021/09/10 03:16:46;;;;;;;14.73;9.50;;;20.10;78.30;;;;;;5031352;28;20179;-74
2021/09/10 03:19:12;;;;;;;16.37;9.83;;;20.10;78.40;;;;;;5031350;28;20247;-75
2021/09/10 03:21:39;;;;;;;11.77;8.73;;;20.20;78.30;;;;;;5032890;28;20204;-75
2021/09/10 03:24:05;;;;;;;19.67;10.20;;;20.20;78.30;;;;;;5030876;28;20189;-75
2021/09/10 03:26:31;;;;;;;15.23;9.17;;;20.20;78.10;;;;;;5031338;28;20816;-74
2021/09/10 03:28:57;;;;;;;14.23;9.97;;;20.10;78.30;;;;;;5030895;28;20788;-74
2021/09/10 03:31:23;;;;;;;13.60;8.93;;;20.10;78.60;;;;;;5031218;28;20580;-75
2021/09/10 03:33:48;;;;;;;18.00;9.63;;;20.10;79.00;;;;;;5038904;28;20260;-75
2021/09/10 03:36:14;;;;;;;14.00;9.33;;;20.10;79.20;;;;;;5024761;28;20558;-76
2021/09/10 03:38:40;;;;;;;13.33;9.47;;;20.20;79.30;;;;;;5032431;28;20189;-75
2021/09/10 03:41:05;;;;;;;14.40;10.30;;;20.20;79.30;;;;;;5034220;28;20220;-75
2021/09/10 03:43:31;;;;;;;14.63;9.67;;;20.20;79.20;;;;;;5027532;28;20220;-76
2021/09/10 03:45:57;;;;;;;14.30;9.83;;;20.20;79.30;;;;;;5031507;28;20216;-76
2021/09/10 03:48:23;;;;;;;15.00;8.77;;;20.20;79.30;;;;;;5030676;28;21003;-74
2021/09/10 03:50:49;;;;;;;16.07;10.07;;;20.10;79.60;;;;;;5030641;28;20589;-73
2021/09/10 03:53:14;;;;;;;16.27;10.43;;;20.20;79.90;;;;;;5028269;28;20279;-75
2021/09/10 03:55:40;;;;;;;19.50;11.90;;;20.10;79.90;;;;;;5027975;28;20541;-76
2021/09/10 03:58:06;;;;;;;19.40;11.53;;;20.00;80.80;;;;;;5025446;28;20185;-75
2021/09/10 04:00:31;;;;;;;21.10;12.10;;;19.90;81.10;;;;;;5027391;28;20186;-75
2021/09/10 04:02:59;;;;;;;18.17;11.37;;;19.90;81.70;;;;;;5030646;28;20762;-76
2021/09/10 04:05:24;;;;;;;15.80;11.30;;;19.90;81.50;;;;;;5032334;28;20206;-76
2021/09/10 04:07:50;;;;;;;15.97;11.40;;;19.90;81.70;;;;;;5034937;28;20428;-75
2021/09/10 04:10:16;;;;;;;17.87;11.80;;;19.90;81.80;;;;;;5034751;28;20191;-76
2021/09/10 04:12:41;;;;;;;18.00;11.43;;;19.90;81.80;;;;;;5034492;28;20249;-75
2021/09/10 04:15:08;;;;;;;16.33;10.00;;;19.90;81.50;;;;;;5034081;28;20197;-76
2021/09/10 04:17:33;;;;;;;16.33;10.87;;;19.90;81.80;;;;;;5034946;28;20195;-75
2021/09/10 04:19:59;;;;;;;21.77;11.57;;;19.80;81.80;;;;;;5066917;28;21205;-76
2021/09/10 04:22:25;;;;;;;20.90;12.43;;;19.80;82.40;;;;;;5034393;28;20179;-75
2021/09/10 04:24:50;;;;;;;29.50;12.80;;;19.80;82.20;;;;;;5036889;28;20304;-76
2021/09/10 04:27:16;;;;;;;15.53;10.80;;;19.80;82.20;;;;;;5032988;28;20180;-74
2021/09/10 04:29:42;;;;;;;19.37;11.40;;;19.70;82.50;;;;;;5033238;28;20186;-76
2021/09/10 04:32:07;;;;;;;21.67;11.10;;;19.70;82.80;;;;;;5028648;28;20282;-76
2021/09/10 04:34:34;;;;;;;17.40;11.60;;;19.60;83.00;;;;;;5031050;28;20232;-76
2021/09/10 04:37:01;;;;;;;16.53;10.30;;;19.60;83.00;;;;;;5033055;28;20201;-75
2021/09/10 04:39:26;;;;;;;16.10;10.70;;;19.50;83.10;;;;;;5028978;28;20768;-76
2021/09/10 04:41:52;;;;;;;20.93;11.23;;;19.50;82.40;;;;;;5031686;28;20489;-75
2021/09/10 04:44:18;;;;;;;16.00;10.40;;;19.50;82.10;;;;;;5033524;28;20205;-76
2021/09/10 04:46:43;;;;;;;17.83;11.67;;;19.40;81.90;;;;;;5033480;28;20688;-75
2021/09/10 04:49:09;;;;;;;17.10;10.87;;;19.40;82.40;;;;;;5032244;28;20192;-76
2021/09/10 04:51:35;;;;;;;18.77;11.13;;;19.40;82.80;;;;;;5035892;28;20251;-75
2021/09/10 04:54:00;;;;;;;15.23;10.20;;;19.30;82.40;;;;;;5033552;28;20181;-75
2021/09/10 04:56:26;;;;;;;18.10;11.60;;;19.30;82.50;;;;;;5036909;28;20637;-76
2021/09/10 04:58:52;;;;;;;20.27;10.63;;;19.30;82.70;;;;;;5034672;28;20212;-76
2021/09/10 05:01:18;;;;;;;18.37;11.27;;;19.20;82.80;;;;;;5030308;28;20799;-75
2021/09/10 05:03:43;;;;;;;14.87;10.17;;;19.20;83.00;;;;;;5025279;28;20193;-75
2021/09/10 05:06:09;;;;;;;16.50;10.83;;;19.20;83.10;;;;;;5032638;28;20687;-76
2021/09/10 05:08:35;;;;;;;17.27;10.70;;;19.10;83.30;;;;;;5029925;28;20193;-76
2021/09/10 05:11:01;;;;;;;18.47;11.90;;;19.10;83.10;;;;;;5032271;28;20186;-76
2021/09/10 05:13:27;;;;;;;19.30;11.40;;;19.10;83.30;;;;;;5031380;28;20216;-75
2021/09/10 05:15:53;;;;;;;18.60;11.20;;;19.10;83.10;;;;;;5031638;28;20262;-75
2021/09/10 05:18:18;;;;;;;18.23;12.10;;;19.10;83.40;;;;;;5031569;28;20430;-75
2021/09/10 05:20:44;;;;;;;15.00;10.10;;;19.10;83.60;;;;;;5031679;28;20633;-76
2021/09/10 05:23:10;;;;;;;17.43;11.40;;;19.10;83.80;;;;;;5025244;28;20220;-77
2021/09/10 05:25:35;;;;;;;19.70;11.10;;;19.20;83.60;;;;;;5032199;28;20237;-76
2021/09/10 05:28:01;;;;;;;17.43;11.00;;;19.20;83.40;;;;;;5032235;28;20182;-76
2021/09/10 05:30:27;;;;;;;16.77;11.57;;;19.20;83.10;;;;;;5031148;28;20189;-77
2021/09/10 05:32:52;;;;;;;17.57;11.40;;;19.10;83.00;;;;;;5032373;28;20220;-77
2021/09/10 05:35:18;;;;;;;18.50;11.80;;;19.10;83.30;;;;;;5030822;28;20201;-76
2021/09/10 05:37:44;;;;;;;16.67;11.00;;;19.10;83.40;;;;;;5027129;28;20723;-77
2021/09/10 05:40:10;;;;;;;19.30;11.77;;;19.10;83.80;;;;;;5032383;28;20189;-77
2021/09/10 05:42:37;;;;;;;19.37;12.00;;;19.20;83.80;;;;;;5045573;28;20236;-77
2021/09/10 05:45:04;;;;;;;21.17;11.73;;;19.10;84.30;;;;;;5042892;28;20476;-76
2021/09/10 05:47:30;;;;;;;22.37;11.50;;;19.20;84.40;;;;;;5025712;28;20772;-77
2021/09/10 05:49:56;;;;;;;16.87;11.10;;;19.20;84.40;;;;;;5024109;28;20473;-75
2021/09/10 05:52:21;;;;;;;15.20;11.17;;;19.30;84.30;;;;;;5029901;28;20619;-76
2021/09/10 05:54:47;;;;;;;17.83;11.20;;;19.30;84.00;;;;;;5032155;28;20240;-77
2021/09/10 05:57:13;;;;;;;21.40;11.60;;;19.30;83.80;;;;;;5033212;28;20192;-76
2021/09/10 05:59:39;;;;;;;22.10;11.43;;;19.30;84.00;;;;;;5033233;28;20639;-75
2021/09/10 06:02:04;;;;;;;22.13;11.70;;;19.30;83.70;;;;;;5032703;28;20235;-76
2021/09/10 06:04:30;;;;;;;15.50;11.80;;;19.30;83.70;;;;;;5031266;28;20203;-75
2021/09/10 06:06:56;;;;;;;19.00;11.90;;;19.30;83.40;;;;;;5032781;28;20564;-75
2021/09/10 06:09:21;;;;;;;16.83;11.80;;;19.30;83.60;;;;;;5032680;28;20189;-76
2021/09/10 06:11:47;;;;;;;16.67;11.40;;;19.40;83.60;;;;;;5031774;28;20668;-77
2021/09/10 06:14:13;;;;;;;20.00;12.27;;;19.50;83.40;;;;;;5032691;28;20209;-77
2021/09/10 06:16:38;;;;;;;19.70;12.20;;;19.50;82.80;;;;;;5032895;28;20266;-76
2021/09/10 06:19:04;;;;;;;17.80;10.90;;;19.60;81.10;;;;;;5032807;28;20189;-77
2021/09/10 06:21:30;;;;;;;17.50;11.43;;;19.60;81.10;;;;;;5031480;28;20266;-77
2021/09/10 06:23:55;;;;;;;19.17;11.73;;;19.50;80.90;;;;;;5032502;28;20193;-76
2021/09/10 06:26:24;;;;;;;17.63;11.70;;;19.50;81.20;;;;;;5032630;28;20220;-77
2021/09/10 06:28:50;;;;;;;16.80;10.60;;;19.40;81.80;;;;;;5031201;28;20188;-75
2021/09/10 06:31:15;;;;;;;17.83;10.97;;;19.40;82.20;;;;;;5031280;28;20428;-77
2021/09/10 06:33:41;;;;;;;15.83;11.10;;;19.40;82.20;;;;;;5032564;28;20213;-76
2021/09/10 06:36:07;;;;;;;18.80;11.50;;;19.50;82.40;;;;;;5040994;28;20688;-77
2021/09/10 06:38:33;;;;;;;18.17;11.53;;;19.50;82.20;;;;;;5032283;28;20218;-75
2021/09/10 06:40:59;;;;;;;20.73;12.27;;;19.70;82.20;;;;;;5024266;28;21200;-76
2021/09/10 06:43:24;;;;;;;17.27;11.37;;;19.80;82.10;;;;;;5031060;28;20270;-77
2021/09/10 06:45:50;;;;;;;18.17;11.40;;;19.90;81.70;;;;;;5031916;28;20210;-76
2021/09/10 06:48:16;;;;;;;15.93;10.90;;;20.00;81.20;;;;;;5030782;28;20198;-76
2021/09/10 06:50:42;;;;;;;22.37;11.67;;;20.20;80.90;;;;;;5032905;28;20676;-79
2021/09/10 06:53:08;;;;;;;15.40;11.07;;;20.30;80.50;;;;;;5032219;28;21078;-78
2021/09/10 06:55:34;;;;;;;16.17;10.40;;;20.30;80.50;;;;;;5031927;28;20300;-76
2021/09/10 06:58:00;;;;;;;15.93;10.40;;;20.40;78.90;;;;;;5031838;28;20432;-77
2021/09/10 07:00:26;;;;;;;17.40;11.00;;;20.50;77.70;;;;;;5032122;28;20912;-77
2021/09/10 07:02:52;;;;;;;14.73;9.70;;;20.60;78.00;;;;;;5035173;28;20843;-78
2021/09/10 07:05:17;;;;;;;13.70;10.07;;;20.70;77.40;;;;;;5036138;28;20206;-77
2021/09/10 07:07:43;;;;;;;15.80;10.07;;;20.70;76.10;;;;;;5026689;28;20190;-78
2021/09/10 07:10:09;;;;;;;13.80;10.10;;;20.80;76.40;;;;;;5032888;28;20190;-77
2021/09/10 07:12:36;;;;;;;16.53;9.80;;;20.90;75.70;;;;;;5044679;28;20213;-76
2021/09/10 07:15:02;;;;;;;15.37;9.33;;;21.00;75.20;;;;;;5040263;28;20474;-77
2021/09/10 07:17:29;;;;;;;16.77;9.87;;;21.10;75.20;;;;;;5033681;28;20426;-77
2021/09/10 07:19:55;;;;;;;14.67;10.30;;;21.20;74.90;;;;;;5032259;28;20453;-78
2021/09/10 07:22:21;;;;;;;16.90;10.83;;;21.30;74.50;;;;;;5029700;28;20429;-76
2021/09/10 07:24:46;;;;;;;15.30;10.07;;;21.40;74.00;;;;;;5030279;28;20210;-77
2021/09/10 07:27:12;;;;;;;11.80;9.40;;;21.50;74.30;;;;;;5032520;28;20183;-77
2021/09/10 07:29:38;;;;;;;14.60;10.60;;;21.60;73.70;;;;;;5030182;28;20196;-77
2021/09/10 07:32:04;;;;;;;15.70;10.10;;;21.80;73.00;;;;;;5030938;28;20221;-77
2021/09/10 07:34:30;;;;;;;17.37;9.60;;;21.90;72.90;;;;;;5031320;28;20208;-79
2021/09/10 07:36:58;;;;;;;14.07;9.70;;;22.00;71.30;;;;;;5032223;28;20964;-79
2021/09/10 07:39:24;;;;;;;15.20;9.67;;;22.10;70.10;;;;;;5035518;28;20645;-77
2021/09/10 07:41:50;;;;;;;12.60;8.90;;;22.20;70.20;;;;;;5042041;28;20423;-76
2021/09/10 07:44:17;;;;;;;14.27;9.83;;;22.20;70.40;;;;;;5041321;28;20283;-77
2021/09/10 07:46:44;;;;;;;20.73;10.53;;;22.20;70.50;;;;;;5034744;28;20546;-79
2021/09/10 07:49:10;;;;;;;15.27;9.73;;;22.30;70.10;;;;;;5025693;28;20488;-77
2021/09/10 07:51:36;;;;;;;13.90;10.00;;;22.40;69.90;;;;;;5031150;28;20427;-76
2021/09/10 07:54:04;;;;;;;13.77;8.60;;;22.50;69.40;;;;;;5031165;28;20950;-78
2021/09/10 07:56:29;;;;;;;13.63;9.27;;;22.60;69.50;;;;;;5027617;28;21234;-77
2021/09/10 07:58:55;;;;;;;13.20;8.63;;;22.60;69.20;;;;;;5030588;28;20437;-78
2021/09/10 08:01:21;;;;;;;13.30;9.90;;;22.60;68.60;;;;;;5026585;28;20266;-76
2021/09/10 08:03:46;;;;;;;14.43;8.57;;;22.70;69.20;;;;;;5024966;28;20643;-79
2021/09/10 08:06:12;;;;;;;11.80;9.47;;;22.90;68.20;;;;;;5024652;28;20282;-77
2021/09/10 08:08:38;;;;;;;12.80;9.13;;;23.00;68.00;;;;;;5029573;28;20674;-77
2021/09/10 08:11:04;;;;;;;14.73;9.40;;;23.00;68.50;;;;;;5028673;28;20269;-77
2021/09/10 08:13:31;;;;;;;12.47;8.83;;;23.10;67.60;;;;;;5031047;28;20689;-77
2021/09/10 08:15:56;;;;;;;12.80;8.40;;;23.20;66.70;;;;;;5031015;28;20482;-78
2021/09/10 08:18:22;;;;;;;13.73;7.90;;;23.30;65.80;;;;;;5030956;28;20840;-77
2021/09/10 08:20:48;;;;;;;13.27;8.87;;;23.40;66.00;;;;;;5031415;28;20187;-79
2021/09/10 08:23:14;;;;;;;12.07;8.47;;;23.40;64.40;;;;;;5032959;28;20194;-75
2021/09/10 08:25:40;;;;;;;11.07;7.93;;;23.30;64.80;;;;;;5038964;28;20481;-77
2021/09/10 08:28:07;;;;;;;12.80;8.47;;;23.20;65.00;;;;;;5038144;28;20211;-76
2021/09/10 08:30:33;;;;;;;12.00;8.10;;;23.20;65.00;;;;;;5037374;28;20196;-76
2021/09/10 08:32:59;;;;;;;14.37;7.80;;;23.10;64.50;;;;;;5028202;28;21116;-78
2021/09/10 08:35:25;;;;;;;13.73;8.60;;;23.10;65.40;;;;;;5032873;28;20323;-77
2021/09/10 08:37:51;;;;;;;10.77;7.80;;;23.10;65.60;;;;;;5031698;28;20542;-77
2021/09/10 08:40:18;;;;;;;13.33;8.23;;;23.10;65.30;;;;;;5027843;28;20436;-78
2021/09/10 08:42:45;;;;;;;12.43;7.40;;;23.10;65.30;;;;;;5031488;28;20935;-77
2021/09/10 08:45:17;;;;;;;11.43;7.77;;;23.00;65.60;;;;;;5029589;28;20449;-78
2021/09/10 08:47:44;;;;;;;10.73;8.30;;;22.90;65.40;;;;;;5031133;28;20502;-79
2021/09/10 08:50:11;;;;;;;11.67;8.13;;;22.80;65.60;;;;;;5030051;28;20433;-77
2021/09/10 08:52:37;;;;;;;15.20;8.13;;;22.80;66.00;;;;;;5029366;28;20973;-77
2021/09/10 08:55:06;;;;;;;13.67;8.87;;;22.70;66.00;;;;;;5031932;28;20804;-77
2021/09/10 08:57:33;;;;;;;12.50;8.80;;;22.70;66.90;;;;;;5032460;28;20413;-77
2021/09/10 09:00:07;;;;;;;10.63;8.27;;;22.70;66.00;;;;;;5032305;28;20747;-78
2021/09/10 09:02:34;;;;;;;11.87;7.83;;;22.70;67.20;;;;;;5033688;28;20426;-77
2021/09/10 09:05:00;;;;;;;10.53;8.07;;;22.90;66.70;;;;;;5031243;28;20447;-77
2021/09/10 09:07:30;;;;;;;10.53;7.67;;;22.90;65.60;;;;;;5032857;28;20435;-79
2021/09/10 09:09:57;;;;;;;10.97;7.67;;;22.90;66.10;;;;;;5034187;28;20254;-80
2021/09/10 09:12:31;;;;;;;10.67;8.17;;;23.00;65.70;;;;;;5032290;28;21049;-79
2021/09/10 09:14:58;;;;;;;14.10;8.70;;;23.10;65.60;;;;;;5034316;28;20935;-79
2021/09/10 09:17:31;;;;;;;10.70;7.63;;;23.20;65.60;;;;;;5033697;28;20917;-76
2021/09/10 09:20:14;;;;;;;14.60;9.00;;;23.30;66.10;;;;;;5030836;28;20430;-77
2021/09/10 09:22:59;;;;;;;11.00;8.83;;;23.40;65.10;;;;;;5034085;28;21420;-76
2021/09/10 09:25:33;;;;;;;12.97;9.27;;;23.50;64.50;;;;;;5033630;28;20452;-79
2021/09/10 09:28:17;;;;;;;12.53;8.43;;;23.50;63.20;;;;;;5031306;28;20431;-76
2021/09/10 09:30:44;;;;;;;11.67;8.17;;;23.60;63.70;;;;;;5034178;28;20429;-78
2021/09/10 09:33:18;;;;;;;13.47;8.20;;;23.70;62.90;;;;;;5033065;28;20466;-77
2021/09/10 09:35:46;;;;;;;12.33;8.10;;;23.80;62.90;;;;;;5034507;28;20454;-78
2021/09/10 09:38:21;;;;;;;14.63;9.53;;;23.80;62.60;;;;;;5038617;28;20422;-80
2021/09/10 09:40:52;;;;;;;13.73;9.30;;;23.80;62.90;;;;;;5053809;28;20427;-75
2021/09/10 09:43:28;;;;;;;13.03;8.87;;;23.80;63.20;;;;;;5055044;28;20464;-74
2021/09/10 09:45:54;;;;;;;13.37;9.13;;;23.90;63.20;;;;;;5048007;28;20454;-76
2021/09/10 09:48:22;;;;;;;13.30;9.30;;;23.90;63.50;;;;;;5053733;28;20469;-76
2021/09/10 09:50:50;;;;;;;15.57;9.20;;;24.00;63.50;;;;;;5053286;28;20486;-74
2021/09/10 09:53:17;;;;;;;12.50;8.30;;;24.10;63.50;;;;;;5055476;28;20474;-76
2021/09/10 09:55:45;;;;;;;14.57;8.77;;;24.00;63.50;;;;;;5054519;28;20461;-77
2021/09/10 09:58:11;;;;;;;12.03;9.40;;;23.90;63.90;;;;;;5053017;28;20457;-74
2021/09/10 10:00:39;;;;;;;11.90;9.00;;;23.90;64.40;;;;;;5050974;28;20485;-78
2021/09/10 10:03:05;;;;;;;13.37;9.40;;;23.90;64.50;;;;;;5041913;28;20427;-78
2021/09/10 10:05:34;;;;;;;14.33;9.50;;;24.00;64.20;;;;;;5031626;28;20454;-78
2021/09/10 10:08:13;;;;;;;14.80;9.30;;;24.10;64.40;;;;;;5036314;28;20431;-78
2021/09/10 10:10:49;;;;;;;13.67;9.13;;;24.20;63.90;;;;;;5031284;28;20496;-79
2021/09/10 10:13:25;;;;;;;11.63;8.37;;;24.40;63.10;;;;;;5033583;28;20970;-75
2021/09/10 10:15:52;;;;;;;13.43;9.20;;;24.50;62.80;;;;;;5033791;28;20445;-78
2021/09/10 10:18:40;;;;;;;12.00;9.03;;;24.80;61.70;;;;;;5034184;28;20492;-77
2021/09/10 10:21:10;;;;;;;13.73;9.90;;;24.90;61.00;;;;;;5035218;28;20462;-78
2021/09/10 10:23:42;;;;;;;13.00;8.40;;;25.00;60.70;;;;;;5033944;28;20424;-77
2021/09/10 10:26:30;;;;;;;14.10;9.60;;;24.80;61.20;;;;;;5033488;28;20449;-77
2021/09/10 10:29:06;;;;;;;13.83;9.60;;;24.70;61.20;;;;;;5029622;28;20432;-77
2021/09/10 10:31:59;;;;;;;14.03;8.90;;;24.80;61.20;;;;;;5036716;28;20428;-76
2021/09/10 10:34:27;;;;;;;14.73;9.03;;;24.90;60.30;;;;;;5048738;28;20459;-74
2021/09/10 10:36:53;;;;;;;12.60;8.73;;;25.00;59.70;;;;;;5031756;28;20438;-78
2021/09/10 10:39:27;;;;;;;13.53;7.83;;;25.10;60.00;;;;;;5040943;28;20433;-78
2021/09/10 10:41:58;;;;;;;11.70;8.53;;;25.20;58.00;;;;;;5038806;28;20485;-77
2021/09/10 10:44:33;;;;;;;12.10;8.67;;;25.30;58.50;;;;;;5036933;28;20444;-77
2021/09/10 10:47:03;;;;;;;10.73;8.63;;;25.80;56.40;;;;;;5035335;28;20489;-78
2021/09/10 10:49:33;;;;;;;10.60;7.73;;;26.20;55.80;;;;;;5040056;28;20429;-77
2021/09/10 10:51:59;;;;;;;10.67;8.80;;;26.80;54.90;;;;;;5039873;28;20800;-79
2021/09/10 10:54:29;;;;;;;12.37;8.97;;;26.90;54.10;;;;;;5029896;28;20442;-77
2021/09/10 10:56:58;;;;;;;10.47;8.50;;;26.80;55.00;;;;;;5039041;28;20188;-77
2021/09/10 10:59:25;;;;;;;12.87;8.97;;;26.50;55.60;;;;;;5035167;28;20489;-79
2021/09/10 11:04:41;;;;;;;12.57;9.33;;;26.60;54.90;;;;;;5033125;28;20434;-79
2021/09/10 11:07:08;;;;;;;15.13;8.60;;;26.90;54.10;;;;;;5032183;28;20448;-77
2021/09/10 11:09:34;;;;;;;11.00;8.53;;;27.20;53.60;;;;;;5035400;28;20188;-77
2021/09/10 11:12:00;;;;;;;10.40;8.23;;;26.70;54.50;;;;;;5046749;28;20915;-74
2021/09/10 11:14:30;;;;;;;13.17;8.60;;;26.50;55.30;;;;;;5046621;28;20207;-77
2021/09/10 11:17:13;;;;;;;12.47;8.37;;;26.10;56.00;;;;;;5034396;28;20434;-78
2021/09/10 11:19:45;;;;;;;11.03;7.80;;;26.20;54.20;;;;;;5035648;28;20454;-77
2021/09/10 11:22:11;;;;;;;10.27;8.30;;;26.10;54.90;;;;;;5035015;28;20928;-78
2021/09/10 11:24:36;;;;;;;11.43;7.80;;;25.80;56.00;;;;;;5031707;28;20483;-77
2021/09/10 11:27:03;;;;;;;11.30;8.23;;;26.10;55.70;;;;;;5033149;28;20434;-79
2021/09/10 11:29:38;;;;;;;10.40;7.83;;;26.20;55.00;;;;;;5031001;28;20188;-76
2021/09/10 11:32:24;;;;;;;12.93;8.30;;;25.90;55.70;;;;;;5030685;28;20430;-75
2021/09/10 11:34:50;;;;;;;12.20;8.47;;;25.60;56.60;;;;;;5030321;28;20440;-76
2021/09/10 11:37:27;;;;;;;11.13;8.47;;;25.50;57.80;;;;;;5035500;28;20498;-76
2021/09/10 11:39:54;;;;;;;12.90;8.27;;;25.70;57.30;;;;;;5030678;28;20932;-74
2021/09/10 11:42:38;;;;;;;11.40;8.83;;;25.80;57.00;;;;;;5027007;28;20513;-76
2021/09/10 11:45:16;;;;;;;10.07;8.03;;;25.80;57.30;;;;;;5030654;28;20445;-76
2021/09/10 11:47:42;;;;;;;12.30;8.50;;;25.80;57.20;;;;;;5026978;28;20430;-75
2021/09/10 11:50:10;;;;;;;11.50;8.57;;;25.80;57.40;;;;;;5029192;28;20517;-76
2021/09/10 11:52:40;;;;;;;11.80;8.63;;;25.90;57.00;;;;;;5026565;28;20470;-75
2021/09/10 11:55:17;;;;;;;12.47;8.93;;;25.80;57.60;;;;;;5021356;28;20489;-74
2021/09/10 11:57:44;;;;;;;13.10;9.47;;;25.80;58.00;;;;;;5030751;28;20422;-76
2021/09/10 12:00:23;;;;;;;14.87;9.10;;;25.90;57.40;;;;;;5030756;28;20431;-74
2021/09/10 12:02:57;;;;;;;13.50;9.03;;;26.10;57.00;;;;;;5030518;28;20433;-76
2021/09/10 12:05:23;;;;;;;12.43;8.90;;;26.10;57.80;;;;;;5030445;28;20953;-74
2021/09/10 12:07:53;;;;;;;11.80;9.40;;;26.20;57.70;;;;;;5029370;28;20431;-75
2021/09/10 12:10:30;;;;;;;13.53;8.80;;;26.00;57.60;;;;;;5030574;28;20202;-74
2021/09/10 12:13:10;;;;;;;15.27;9.37;;;25.90;58.40;;;;;;5029337;28;20477;-74
2021/09/10 12:15:37;;;;;;;15.43;9.00;;;25.90;58.50;;;;;;5030542;28;20445;-75
2021/09/10 12:18:10;;;;;;;13.07;10.20;;;25.80;58.70;;;;;;5030782;28;20436;-75
2021/09/10 12:20:37;;;;;;;12.30;9.70;;;26.00;58.40;;;;;;5029247;28;20430;-73
2021/09/10 12:23:03;;;;;;;11.80;8.57;;;25.80;58.00;;;;;;5030598;28;20425;-73
2021/09/10 12:25:33;;;;;;;12.83;9.20;;;25.90;58.40;;;;;;5023130;28;21104;-75
2021/09/10 12:28:08;;;;;;;16.63;8.63;;;26.10;58.20;;;;;;5033460;28;20453;-74
2021/09/10 12:30:34;;;;;;;11.47;8.60;;;26.40;57.20;;;;;;5028895;28;20442;-75
2021/09/10 12:33:01;;;;;;;11.50;8.80;;;26.60;56.20;;;;;;5034316;28;20830;-73
2021/09/10 12:35:28;;;;;;;11.30;9.30;;;26.60;56.50;;;;;;5034013;28;20207;-73
2021/09/10 12:38:01;;;;;;;13.00;9.60;;;26.70;56.50;;;;;;5034323;28;20467;-73